Yoakum, Texas
Current Conditions -  °F | °C
As of 6:15 PM on Tuesday 25 Nov 2014 (Local Time) from KT20 Reporting Station
Clear Clear  
Wind Chill: 59°   Ceiling: Unl
Heat Index: 59°   Visibility: 10mi
Dew Point: 31°   Wind: 0mph
Humidity: 34%   Direction: NA
Pressure: 30.22"   Gusts: NA
Location:  29.29°N, 97.15°W
Report Text: KT20 260015Z AUTO 00000KT 10SM CLR 15/M01 A3022 RMK AO2 T01481008
Loading
Personal Weather Stations






























Interactive Weather Map New forecast layout! Learn more

10-Day Weather Forecast

Advertisements
Track Severe Weather on mobile